createdAt,value
2022-10-17T00:00:34.813Z,15.02
2022-10-17T00:03:01.394Z,14.93
2022-10-17T00:05:28.064Z,17.23
2022-10-17T00:07:55.112Z,15.65
2022-10-17T00:10:22.720Z,18.90
2022-10-17T00:12:52.047Z,21.60
2022-10-17T00:15:21.741Z,18.02
2022-10-17T00:17:49.011Z,12.13
2022-10-17T00:20:16.212Z,17.95
2022-10-17T00:22:43.194Z,20.08
2022-10-17T00:25:10.196Z,17.05
2022-10-17T00:27:38.595Z,17.75
2022-10-17T00:30:10.267Z,19.90
2022-10-17T00:32:37.003Z,17.85
2022-10-17T00:35:03.763Z,18.20
2022-10-17T00:37:32.109Z,12.93
2022-10-17T00:39:59.876Z,17.25
2022-10-17T00:42:27.636Z,20.52
2022-10-17T00:45:10.277Z,18.58
2022-10-17T00:47:37.189Z,17.50
2022-10-17T00:50:06.604Z,18.80
2022-10-17T00:52:33.988Z,24.20
2022-10-17T00:55:30.469Z,21.40
2022-10-17T00:58:00.228Z,18.63
2022-10-17T01:00:26.838Z,22.95
2022-10-17T01:02:53.485Z,22.63
2022-10-17T01:05:20.870Z,23.88
2022-10-17T01:07:49.316Z,20.45
2022-10-17T01:10:17.028Z,22.67
2022-10-17T01:13:11.704Z,18.10
2022-10-17T01:16:04.706Z,19.00
2022-10-17T01:18:31.268Z,18.23
2022-10-17T01:21:18.108Z,15.77
2022-10-17T01:24:12.656Z,24.50
2022-10-17T01:27:00.900Z,19.05
2022-10-17T01:29:51.153Z,28.30
2022-10-17T01:32:25.350Z,26.60
2022-10-17T01:35:04.017Z,20.35
2022-10-17T01:37:41.069Z,23.70
2022-10-17T01:40:20.699Z,23.02
2022-10-17T01:43:22.203Z,19.13
2022-10-17T01:46:09.906Z,21.75
2022-10-17T01:48:40.144Z,20.15
2022-10-17T01:51:12.841Z,19.42
2022-10-17T01:53:54.618Z,16.90
2022-10-17T01:56:25.223Z,18.88
2022-10-17T01:59:01.259Z,20.17
2022-10-17T02:01:30.868Z,19.52
2022-10-17T02:03:59.267Z,19.50
2022-10-17T02:06:25.971Z,19.10
2022-10-17T02:08:52.673Z,21.52
2022-10-17T02:11:26.000Z,20.58
2022-10-17T02:13:52.551Z,24.50
2022-10-17T02:16:53.515Z,21.40
2022-10-17T02:19:38.208Z,19.00
2022-10-17T02:22:35.252Z,19.08
2022-10-17T02:25:29.372Z,22.80
2022-10-17T02:28:42.334Z,32.05
2022-10-17T02:31:16.538Z,28.40
2022-10-17T02:33:57.904Z,25.73
2022-10-17T02:36:38.838Z,28.55
2022-10-17T02:39:07.927Z,24.90
2022-10-17T02:41:36.042Z,32.20
2022-10-17T02:44:04.858Z,27.52
2022-10-17T02:46:32.594Z,31.63
2022-10-17T02:49:01.340Z,40.33
2022-10-17T02:51:49.721Z,35.17
2022-10-17T02:54:47.701Z,29.50
2022-10-17T02:57:45.187Z,32.90
2022-10-17T03:00:13.729Z,46.70
2022-10-17T03:02:43.788Z,32.25
2022-10-17T03:05:12.308Z,34.30
2022-10-17T03:07:39.199Z,36.25
2022-10-17T03:10:07.351Z,41.70
2022-10-17T03:12:33.951Z,38.00
2022-10-17T03:15:00.533Z,37.17
2022-10-17T03:17:27.101Z,41.30
2022-10-17T03:19:53.692Z,48.08
2022-10-17T03:22:20.337Z,37.17
2022-10-17T03:24:46.896Z,38.55
2022-10-17T03:27:13.578Z,41.10
2022-10-17T03:29:40.176Z,36.67
2022-10-17T03:32:09.286Z,37.38
2022-10-17T03:34:35.921Z,45.30
2022-10-17T03:37:02.612Z,38.17
2022-10-17T03:39:29.176Z,41.45
2022-10-17T03:41:55.815Z,39.05
2022-10-17T03:44:22.366Z,37.90
2022-10-17T03:46:48.995Z,36.22
2022-10-17T03:49:15.615Z,38.80
2022-10-17T03:51:42.248Z,42.00
2022-10-17T03:54:08.827Z,38.88
2022-10-17T03:56:35.459Z,33.72
2022-10-17T03:59:02.090Z,35.90
2022-10-17T04:01:28.812Z,36.90
2022-10-17T04:03:56.968Z,31.52
2022-10-17T04:06:23.664Z,29.55
2022-10-17T04:08:50.571Z,36.88
2022-10-17T04:11:19.931Z,40.58
2022-10-17T04:13:46.922Z,34.30
2022-10-17T04:16:16.337Z,30.85
2022-10-17T04:18:43.779Z,34.75
2022-10-17T04:21:11.327Z,32.10
2022-10-17T04:23:38.357Z,37.38
2022-10-17T04:26:05.956Z,31.30
2022-10-17T04:28:33.077Z,33.28
2022-10-17T04:31:09.419Z,34.95
2022-10-17T04:33:36.056Z,33.28
2022-10-17T04:36:08.192Z,35.40
2022-10-17T04:38:34.853Z,37.13
2022-10-17T04:41:03.238Z,43.08
2022-10-17T04:43:34.683Z,38.20
2022-10-17T04:46:03.268Z,40.08
2022-10-17T04:48:30.209Z,37.67
2022-10-17T04:51:02.376Z,38.97
2022-10-17T04:53:31.086Z,33.85
2022-10-17T04:55:57.714Z,35.78
2022-10-17T04:58:24.648Z,31.15
2022-10-17T05:00:51.373Z,46.25
2022-10-17T05:03:17.966Z,34.42
2022-10-17T05:05:44.741Z,41.75
2022-10-17T05:08:12.543Z,40.38
2022-10-17T05:10:44.439Z,45.03
2022-10-17T05:13:11.493Z,40.50
2022-10-17T05:15:38.564Z,39.40
2022-10-17T05:18:06.319Z,44.80
2022-10-17T05:20:33.280Z,44.90
2022-10-17T05:23:00.262Z,43.70
2022-10-17T05:25:26.886Z,46.05
2022-10-17T05:27:53.959Z,43.60
2022-10-17T05:30:20.673Z,45.60
2022-10-17T05:32:47.347Z,44.17
2022-10-17T05:35:14.085Z,53.00
2022-10-17T05:37:40.680Z,47.75
2022-10-17T05:40:07.966Z,42.03
2022-10-17T05:42:34.904Z,40.08
2022-10-17T05:45:01.644Z,45.92
2022-10-17T05:47:28.509Z,43.10
2022-10-17T05:49:55.445Z,45.30
2022-10-17T05:52:22.129Z,53.72
2022-10-17T05:54:48.747Z,48.15
2022-10-17T05:57:16.177Z,57.78
2022-10-17T05:59:42.722Z,46.75
2022-10-17T06:02:12.403Z,48.70
2022-10-17T06:04:40.909Z,49.88
2022-10-17T06:07:07.474Z,51.22
2022-10-17T06:09:34.150Z,58.00
2022-10-17T06:12:00.780Z,49.38
2022-10-17T06:14:27.348Z,66.00
2022-10-17T06:17:04.022Z,56.72
2022-10-17T06:19:30.617Z,52.70
2022-10-17T06:21:57.220Z,48.55
2022-10-17T06:24:23.993Z,48.55
2022-10-17T06:26:51.110Z,52.08
2022-10-17T06:29:17.812Z,49.83
2022-10-17T06:31:44.405Z,51.90
2022-10-17T06:34:11.365Z,62.88
2022-10-17T06:36:37.958Z,59.85
2022-10-17T06:39:04.714Z,56.75
2022-10-17T06:41:31.323Z,52.70
2022-10-17T06:43:57.893Z,54.13
2022-10-17T06:46:26.732Z,50.75
2022-10-17T06:48:53.359Z,51.45
2022-10-17T06:51:20.049Z,50.65
2022-10-17T06:53:47.130Z,50.58
2022-10-17T06:56:13.791Z,50.08
2022-10-17T06:58:41.167Z,55.45
2022-10-17T07:01:09.875Z,47.40
2022-10-17T07:03:37.287Z,56.83
2022-10-17T07:06:04.993Z,48.88
2022-10-17T07:08:31.664Z,52.03
2022-10-17T07:10:58.987Z,49.88
2022-10-17T07:13:25.794Z,63.50
2022-10-17T07:15:52.731Z,59.97
2022-10-17T07:18:19.327Z,58.42
2022-10-17T07:20:53.701Z,55.50
2022-10-17T07:23:20.567Z,54.08
2022-10-17T07:25:47.140Z,51.85
2022-10-17T07:28:15.113Z,58.35
2022-10-17T07:30:42.252Z,53.70
2022-10-17T07:33:08.810Z,47.40
2022-10-17T07:35:37.499Z,45.53
2022-10-17T07:38:04.103Z,50.03
2022-10-17T07:40:30.667Z,34.58
2022-10-17T07:42:57.249Z,39.97
2022-10-17T07:45:23.907Z,25.35
2022-10-17T07:47:50.457Z,40.72
2022-10-17T07:50:17.211Z,37.40
2022-10-17T07:52:43.893Z,48.15
2022-10-17T07:55:10.620Z,36.70
2022-10-17T07:57:37.252Z,48.20
2022-10-17T08:00:04.217Z,40.13
2022-10-17T08:02:31.872Z,23.38
2022-10-17T08:04:58.810Z,29.52
2022-10-17T08:07:29.302Z,44.30
2022-10-17T08:09:56.225Z,18.65
2022-10-17T08:12:24.195Z,14.75
2022-10-17T08:14:50.762Z,15.23
2022-10-17T08:17:17.381Z,17.70
2022-10-17T08:19:43.959Z,16.98
2022-10-17T08:22:10.518Z,24.92
2022-10-17T08:24:37.108Z,18.83
2022-10-17T08:27:08.681Z,29.58
2022-10-17T08:29:35.215Z,31.05
2022-10-17T08:32:03.694Z,31.83
2022-10-17T08:34:31.092Z,31.80
2022-10-17T08:36:57.687Z,39.33
2022-10-17T08:39:24.540Z,39.28
2022-10-17T08:42:05.993Z,37.53
2022-10-17T08:45:08.029Z,36.97
2022-10-17T08:47:52.699Z,38.28
2022-10-17T08:50:30.921Z,37.25
2022-10-17T08:53:08.853Z,33.28
2022-10-17T08:55:45.835Z,40.40
2022-10-17T08:58:25.991Z,38.60
2022-10-17T09:01:06.995Z,40.63
2022-10-17T09:04:06.269Z,38.78
2022-10-17T09:06:37.486Z,46.08
2022-10-17T09:09:18.975Z,45.53
2022-10-17T09:11:54.525Z,49.45
2022-10-17T09:15:02.511Z,54.47
2022-10-17T09:17:52.010Z,42.83
2022-10-17T09:20:26.090Z,52.05
2022-10-17T09:23:02.273Z,55.75
2022-10-17T09:25:31.344Z,49.15
2022-10-17T09:28:09.954Z,52.38
2022-10-17T09:31:04.294Z,54.33
2022-10-17T09:33:53.899Z,55.10
2022-10-17T09:36:37.025Z,57.92
2022-10-17T09:39:19.398Z,55.67
2022-10-17T09:41:55.671Z,72.28
2022-10-17T09:44:35.480Z,44.45
2022-10-17T09:47:26.895Z,51.90
2022-10-17T09:49:53.884Z,53.22
2022-10-17T09:52:27.191Z,71.18
2022-10-17T09:55:20.143Z,65.03
2022-10-17T09:57:56.595Z,62.67
2022-10-17T10:00:29.909Z,65.68
2022-10-17T10:03:09.721Z,60.42
2022-10-17T10:05:36.578Z,65.68
2022-10-17T10:08:06.204Z,53.28
2022-10-17T10:10:33.311Z,54.67
2022-10-17T10:13:20.438Z,61.00
2022-10-17T10:15:49.455Z,55.92
2022-10-17T10:18:25.166Z,51.03
2022-10-17T10:21:12.144Z,55.45
2022-10-17T10:23:44.417Z,51.28
2022-10-17T10:26:27.429Z,56.80
2022-10-17T10:29:01.611Z,45.25
2022-10-17T10:31:35.118Z,56.88
2022-10-17T10:34:13.011Z,60.28
2022-10-17T10:36:49.751Z,61.85
2022-10-17T10:39:32.124Z,55.70
2022-10-17T10:42:00.278Z,58.50
2022-10-17T10:44:30.376Z,38.63
2022-10-17T10:47:18.339Z,45.08
2022-10-17T10:49:45.242Z,50.33
2022-10-17T10:52:29.724Z,46.88
2022-10-17T10:55:14.266Z,43.22
2022-10-17T10:57:43.944Z,46.00
2022-10-17T11:00:19.390Z,51.20
2022-10-17T11:02:53.770Z,53.70
2022-10-17T11:05:42.175Z,43.15
2022-10-17T11:08:23.412Z,38.92
2022-10-17T11:11:13.631Z,43.17
2022-10-17T11:13:49.562Z,39.22
2022-10-17T11:16:40.007Z,44.17
2022-10-17T11:19:16.968Z,43.67
2022-10-17T11:22:05.376Z,41.30
2022-10-17T11:24:40.768Z,40.05
2022-10-17T11:27:08.544Z,36.13
2022-10-17T11:29:38.622Z,44.92
2022-10-17T11:32:15.218Z,44.03
2022-10-17T11:34:49.809Z,39.03
2022-10-17T11:37:21.626Z,38.28
2022-10-17T11:39:55.603Z,32.47
2022-10-17T11:42:31.652Z,34.13
2022-10-17T11:45:14.075Z,26.35
2022-10-17T11:47:54.044Z,24.77
2022-10-17T11:53:27.839Z,17.98
2022-10-17T11:55:57.901Z,26.17
2022-10-17T12:01:08.048Z,26.58
2022-10-17T12:03:49.545Z,16.50
2022-10-17T12:06:39.576Z,25.65
2022-10-17T12:09:31.592Z,20.23
2022-10-17T12:12:03.070Z,27.73
2022-10-17T12:14:40.473Z,26.48
2022-10-17T12:17:32.830Z,27.25
2022-10-17T12:20:23.400Z,28.98
2022-10-17T12:22:51.972Z,28.27
2022-10-17T12:25:20.458Z,24.15
2022-10-17T12:27:49.926Z,22.90
2022-10-17T12:30:25.656Z,27.13
2022-10-17T12:33:13.292Z,28.58
2022-10-17T12:35:40.085Z,19.58
2022-10-17T12:38:18.790Z,25.77
2022-10-17T12:40:49.081Z,23.05
2022-10-17T12:43:15.788Z,32.33
2022-10-17T12:45:53.721Z,19.27
2022-10-17T12:48:39.323Z,19.50
2022-10-17T12:54:08.546Z,18.05
2022-10-17T12:56:42.215Z,16.38
2022-10-17T12:59:17.097Z,20.55
2022-10-17T13:01:47.392Z,13.55
2022-10-17T13:04:15.418Z,16.20
2022-10-17T13:06:47.960Z,15.48
2022-10-17T13:09:30.623Z,16.55
2022-10-17T13:12:00.721Z,18.23
2022-10-17T13:14:28.325Z,18.83
2022-10-17T13:16:58.365Z,18.45
2022-10-17T13:19:46.560Z,17.42
2022-10-17T13:22:24.658Z,16.33
2022-10-17T13:24:54.021Z,10.02
2022-10-17T13:27:30.020Z,13.07
2022-10-17T13:29:58.648Z,19.08
2022-10-17T13:32:26.972Z,15.52
2022-10-17T13:35:15.098Z,13.85
2022-10-17T13:37:44.478Z,13.57
2022-10-17T13:40:49.551Z,14.05
2022-10-17T13:43:19.415Z,16.98
2022-10-17T13:45:50.398Z,21.38
2022-10-17T13:48:23.932Z,14.75
2022-10-17T13:50:53.453Z,19.63
2022-10-17T13:53:24.384Z,16.05
2022-10-17T13:56:27.395Z,16.70
2022-10-17T13:58:57.280Z,9.60
2022-10-17T14:01:25.996Z,10.48
2022-10-17T14:04:07.107Z,13.43
2022-10-17T14:06:35.971Z,14.43
2022-10-17T14:09:07.259Z,13.77
2022-10-17T14:11:42.614Z,14.77
2022-10-17T14:14:23.148Z,12.73
2022-10-17T14:16:50.076Z,14.55
2022-10-17T14:19:30.795Z,17.23
2022-10-17T14:22:35.028Z,14.32
2022-10-17T14:25:02.747Z,13.70
2022-10-17T14:27:55.656Z,11.65
2022-10-17T14:30:51.501Z,10.15
2022-10-17T14:33:29.214Z,14.70
2022-10-17T14:35:58.611Z,13.88
2022-10-17T14:38:25.838Z,15.88
2022-10-17T14:41:09.789Z,16.85
2022-10-17T14:43:45.190Z,14.23
2022-10-17T14:46:15.116Z,14.10
2022-10-17T14:48:42.939Z,15.80
2022-10-17T14:51:15.452Z,15.30
2022-10-17T14:54:05.421Z,17.48
2022-10-17T14:56:53.101Z,14.70
2022-10-17T14:59:51.751Z,13.63
2022-10-17T15:02:11.372Z,14.18
2022-10-17T15:04:38.019Z,11.77
2022-10-17T15:07:05.461Z,12.43
2022-10-17T15:09:32.573Z,16.90
2022-10-17T15:12:02.422Z,14.05
2022-10-17T15:14:29.189Z,11.18
2022-10-17T15:16:56.024Z,12.52
2022-10-17T15:19:22.601Z,8.32
2022-10-17T15:21:49.175Z,10.35
2022-10-17T15:24:15.825Z,13.05
2022-10-17T15:26:42.498Z,11.60
2022-10-17T15:29:14.629Z,13.90
2022-10-17T15:31:41.589Z,12.15
2022-10-17T15:34:08.210Z,10.30
2022-10-17T15:36:40.291Z,12.13
2022-10-17T15:39:07.409Z,10.07
2022-10-17T15:41:34.033Z,12.73
2022-10-17T15:44:01.208Z,9.07
2022-10-17T15:46:30.436Z,11.07
2022-10-17T15:49:01.361Z,12.82
2022-10-17T15:51:27.907Z,13.27
2022-10-17T15:53:54.499Z,12.07
2022-10-17T15:56:21.029Z,10.30
2022-10-17T15:58:47.958Z,13.77
2022-10-17T16:01:30.575Z,11.60
2022-10-17T16:03:57.545Z,9.98
2022-10-17T16:06:24.783Z,15.02
2022-10-17T16:08:51.752Z,14.43
2022-10-17T16:11:36.849Z,13.05
2022-10-17T16:16:34.889Z,12.88
2022-10-17T16:19:02.448Z,11.45
2022-10-17T16:21:32.730Z,13.93
2022-10-17T16:24:00.460Z,12.60
2022-10-17T16:26:28.231Z,14.95
2022-10-17T16:28:56.004Z,14.13
2022-10-17T16:31:29.677Z,15.18
2022-10-17T16:33:58.610Z,12.27
2022-10-17T16:36:26.161Z,11.32
2022-10-17T16:38:54.064Z,12.85
2022-10-17T16:41:24.860Z,12.93
2022-10-17T16:43:53.518Z,10.20
2022-10-17T16:46:21.384Z,12.68
2022-10-17T16:48:48.740Z,17.35
2022-10-17T16:51:16.283Z,12.35
2022-10-17T16:53:45.728Z,13.75
2022-10-17T16:56:15.463Z,14.32
2022-10-17T16:58:42.688Z,16.73
2022-10-17T17:01:15.360Z,13.57
2022-10-17T17:03:43.627Z,12.73
2022-10-17T17:06:14.133Z,15.43
2022-10-17T17:08:42.292Z,14.55
2022-10-17T17:11:10.830Z,17.30
2022-10-17T17:13:38.075Z,17.23
2022-10-17T17:16:16.851Z,12.75
2022-10-17T17:18:43.633Z,14.27
2022-10-17T17:21:11.136Z,15.52
2022-10-17T17:23:40.414Z,13.70
2022-10-17T17:26:12.977Z,21.58
2022-10-17T17:28:40.150Z,21.27
2022-10-17T17:31:12.823Z,14.57
2022-10-17T17:33:40.914Z,16.20
2022-10-17T17:36:10.452Z,11.57
2022-10-17T17:38:37.225Z,17.45
2022-10-17T17:41:04.480Z,20.35
2022-10-17T17:43:31.134Z,16.30
2022-10-17T17:46:00.353Z,15.88
2022-10-17T17:48:26.949Z,19.60
2022-10-17T17:50:53.576Z,18.23
2022-10-17T17:53:20.146Z,18.35
2022-10-17T17:55:46.860Z,16.60
2022-10-17T17:58:13.925Z,20.20
2022-10-17T18:00:41.224Z,17.30
2022-10-17T18:03:08.262Z,16.20
2022-10-17T18:05:35.204Z,19.63
2022-10-17T18:08:02.045Z,18.17
2022-10-17T18:10:29.870Z,20.10
2022-10-17T18:12:56.515Z,13.68
2022-10-17T18:15:23.490Z,21.65
2022-10-17T18:17:50.486Z,16.52
2022-10-17T18:20:17.211Z,16.33
2022-10-17T18:22:43.889Z,15.07
2022-10-17T18:25:10.451Z,20.35
2022-10-17T18:27:37.059Z,18.08
2022-10-17T18:30:04.420Z,13.02
2022-10-17T18:32:32.290Z,18.88
2022-10-17T18:34:59.125Z,14.63
2022-10-17T18:37:26.168Z,16.67
2022-10-17T18:39:55.287Z,18.90
2022-10-17T18:42:22.072Z,19.17
2022-10-17T18:44:49.949Z,20.20
2022-10-17T18:47:16.936Z,15.30
2022-10-17T18:49:43.776Z,25.25
2022-10-17T18:52:10.496Z,16.88
2022-10-17T18:54:37.390Z,27.30
2022-10-17T18:57:04.205Z,22.95
2022-10-17T18:59:31.563Z,22.23
2022-10-17T19:01:58.349Z,21.58
2022-10-17T19:04:25.245Z,20.08
2022-10-17T19:06:52.054Z,24.60
2022-10-17T19:09:19.116Z,18.92
2022-10-17T19:11:45.936Z,21.23
2022-10-17T19:14:13.363Z,22.20
2022-10-17T19:16:46.283Z,23.33
2022-10-17T19:19:17.607Z,22.52
2022-10-17T19:21:45.055Z,22.90
2022-10-17T19:24:14.515Z,26.60
2022-10-17T19:26:42.511Z,29.13
2022-10-17T19:29:12.854Z,23.27
2022-10-17T19:31:39.552Z,24.90
2022-10-17T19:34:06.143Z,19.50
2022-10-17T19:36:34.296Z,24.08
2022-10-17T19:39:14.249Z,20.95
2022-10-17T19:41:45.531Z,19.80
2022-10-17T19:44:12.586Z,23.13
2022-10-17T19:46:39.850Z,29.08
2022-10-17T19:49:07.253Z,25.02
2022-10-17T19:51:34.269Z,34.40
2022-10-17T19:54:01.564Z,25.60
2022-10-17T19:56:30.921Z,29.00
2022-10-17T19:58:58.353Z,32.15
2022-10-17T20:01:31.579Z,30.30
2022-10-17T20:03:58.491Z,36.42
2022-10-17T20:06:25.928Z,36.75
2022-10-17T20:08:52.843Z,32.60
2022-10-17T20:11:24.984Z,34.55
2022-10-17T20:13:52.532Z,38.03
2022-10-17T20:16:28.015Z,44.08
2022-10-17T20:18:57.131Z,43.50
2022-10-17T20:21:31.640Z,38.42
2022-10-17T20:23:59.677Z,35.72
2022-10-17T20:26:42.612Z,33.90
2022-10-17T20:29:13.785Z,35.25
2022-10-17T20:31:42.658Z,30.83
2022-10-17T20:34:12.537Z,37.53
2022-10-17T20:36:39.187Z,34.70
2022-10-17T20:39:07.175Z,34.58
2022-10-17T20:41:34.091Z,30.23
2022-10-17T20:44:00.687Z,29.58
2022-10-17T20:46:36.738Z,26.77
2022-10-17T20:49:06.534Z,29.58
2022-10-17T20:51:33.625Z,30.25
2022-10-17T20:54:00.386Z,39.85
2022-10-17T20:57:03.995Z,33.90
2022-10-17T20:59:34.146Z,26.40
2022-10-17T21:02:00.783Z,29.60
2022-10-17T21:07:15.900Z,28.02
2022-10-17T21:09:42.516Z,25.77
2022-10-17T21:12:09.096Z,31.08
2022-10-17T21:14:36.301Z,32.25
2022-10-17T21:17:05.285Z,31.52
2022-10-17T21:19:32.219Z,24.02
2022-10-17T21:21:58.783Z,28.10
2022-10-17T21:24:25.395Z,23.73
2022-10-17T21:26:55.536Z,17.33
2022-10-17T21:29:23.299Z,21.55
2022-10-17T21:31:50.181Z,23.73
2022-10-17T21:34:24.372Z,26.10
2022-10-17T21:36:51.561Z,22.58
2022-10-17T21:39:18.371Z,22.42
2022-10-17T21:41:45.404Z,23.48
2022-10-17T21:44:14.947Z,26.30
2022-10-17T21:46:42.272Z,32.85
2022-10-17T21:49:11.869Z,21.92
2022-10-17T21:51:39.211Z,26.90
2022-10-17T21:54:06.118Z,22.92
2022-10-17T21:56:34.607Z,20.98
2022-10-17T21:59:01.458Z,22.92
2022-10-17T22:01:30.150Z,25.20
2022-10-17T22:03:59.661Z,21.10
2022-10-17T22:06:43.750Z,23.25
2022-10-17T22:09:18.390Z,22.88
2022-10-17T22:11:48.376Z,24.30
2022-10-17T22:14:18.015Z,33.83
2022-10-17T22:16:48.056Z,22.48
2022-10-17T22:19:17.729Z,23.13
2022-10-17T22:21:44.551Z,18.67
2022-10-17T22:24:13.665Z,24.70
2022-10-17T22:26:40.889Z,21.30
2022-10-17T22:29:08.580Z,27.63
2022-10-17T22:31:35.903Z,23.02
2022-10-17T22:34:05.105Z,27.33
2022-10-17T22:36:32.513Z,24.23
2022-10-17T22:38:59.160Z,26.17
2022-10-17T22:41:25.760Z,25.42
2022-10-17T22:43:52.330Z,23.60
2022-10-17T22:46:18.968Z,28.02
2022-10-17T22:48:45.963Z,29.00
2022-10-17T22:51:12.828Z,22.08
2022-10-17T22:53:39.915Z,22.83
2022-10-17T22:56:12.236Z,20.98
2022-10-17T22:58:39.047Z,23.73
2022-10-17T23:01:07.679Z,28.02
2022-10-17T23:03:34.966Z,31.23
2022-10-17T23:06:01.888Z,22.92
2022-10-17T23:08:28.600Z,20.02
2022-10-17T23:10:55.192Z,31.88
2022-10-17T23:13:21.920Z,21.50
2022-10-17T23:15:56.603Z,27.85
2022-10-17T23:20:51.324Z,27.48
2022-10-17T23:23:18.870Z,27.48
2022-10-17T23:25:46.051Z,25.85
2022-10-17T23:28:12.885Z,22.73
2022-10-17T23:30:39.899Z,19.48
2022-10-17T23:33:07.182Z,30.75
2022-10-17T23:35:35.482Z,24.20
2022-10-17T23:38:02.416Z,22.95
2022-10-17T23:40:29.383Z,30.88
2022-10-17T23:42:55.963Z,23.83
2022-10-17T23:45:22.642Z,26.55
2022-10-17T23:47:49.254Z,25.30
2022-10-17T23:50:16.348Z,24.45
2022-10-17T23:52:43.020Z,23.27
2022-10-17T23:55:09.964Z,21.08
2022-10-17T23:57:36.559Z,20.75
